Time;durP1;ratioP1;P1;durP2;ratioP2;P2;SDS_P1;SDS_P2;PMS_P1;PMS_P2;Temp;Humidity;BMP_temperature;BMP_pressure;BME280_temperature;BME280_humidity;BME280_pressure;Samples;Min_cycle;Max_cycle;Signal;HPM_P1;HPM_P2
2024/03/15 00:00:51;;;;;;;3.08;1.10;;;14.40;74.40;;;;;;2309945;56;21002;-65
2024/03/15 00:03:17;;;;;;;4.97;2.00;;;14.40;74.30;;;;;;2309421;56;21240;-66
2024/03/15 00:05:43;;;;;;;3.87;1.95;;;14.40;74.30;;;;;;2310225;56;21393;-64
2024/03/15 00:08:10;;;;;;;4.37;2.03;;;14.40;74.30;;;;;;2549440;54;21128;-65
2024/03/15 00:10:37;;;;;;;5.60;2.72;;;14.40;74.30;;;;;;2549529;54;21410;-65
2024/03/15 00:13:03;;;;;;;6.70;3.33;;;14.30;74.10;;;;;;2310008;56;21078;-65
2024/03/15 00:15:30;;;;;;;7.95;4.47;;;14.30;74.10;;;;;;2309308;55;21503;-65
2024/03/15 00:17:56;;;;;;;9.30;4.40;;;14.30;74.70;;;;;;2309737;55;20987;-65
2024/03/15 00:20:23;;;;;;;8.02;3.55;;;14.30;74.00;;;;;;2310136;56;20987;-65
2024/03/15 00:22:52;;;;;;;5.93;3.28;;;14.20;74.00;;;;;;2309972;56;20970;-66
2024/03/15 00:25:21;;;;;;;6.85;3.72;;;14.20;74.00;;;;;;2288084;55;20923;-65
2024/03/15 00:27:47;;;;;;;4.50;2.47;;;14.20;74.00;;;;;;2310240;54;21015;-64
2024/03/15 00:30:13;;;;;;;5.20;2.60;;;14.20;74.00;;;;;;2309876;56;20931;-65
2024/03/15 00:32:40;;;;;;;3.80;2.00;;;14.20;74.00;;;;;;2310198;56;20990;-66
2024/03/15 00:35:06;;;;;;;3.55;1.58;;;14.20;74.00;;;;;;2309963;56;21369;-65
2024/03/15 00:37:33;;;;;;;3.67;1.27;;;14.10;74.70;;;;;;2548986;54;21327;-66
2024/03/15 00:39:59;;;;;;;2.62;1.17;;;14.10;74.10;;;;;;2310375;55;21196;-66
2024/03/15 00:42:26;;;;;;;2.72;1.17;;;14.10;74.20;;;;;;2311958;55;21140;-65
2024/03/15 00:44:52;;;;;;;2.65;1.10;;;14.10;74.20;;;;;;2509813;55;21520;-65
2024/03/15 00:47:18;;;;;;;2.80;1.37;;;14.10;74.20;;;;;;2295711;56;20947;-65
2024/03/15 00:49:45;;;;;;;2.45;1.00;;;14.10;74.30;;;;;;2310000;56;21011;-65
2024/03/15 00:52:11;;;;;;;2.90;1.20;;;14.20;74.40;;;;;;2309856;56;21039;-65
2024/03/15 00:54:39;;;;;;;2.05;0.90;;;14.10;74.30;;;;;;2516922;54;21003;-65
2024/03/15 00:57:07;;;;;;;2.28;1.08;;;14.10;74.30;;;;;;2290945;55;21023;-64
2024/03/15 00:59:34;;;;;;;2.10;0.90;;;14.10;74.30;;;;;;2306557;54;20931;-65
2024/03/15 01:02:01;;;;;;;6.03;1.15;;;14.10;74.30;;;;;;2549137;54;21035;-65
2024/03/15 01:04:28;;;;;;;2.28;0.93;;;14.10;74.40;;;;;;2548746;54;20928;-65
2024/03/15 01:06:54;;;;;;;2.67;1.05;;;14.10;74.30;;;;;;2310140;54;20996;-65
2024/03/15 01:09:24;;;;;;;1.87;0.80;;;14.00;74.20;;;;;;2549626;54;20979;-65
2024/03/15 01:11:50;;;;;;;1.77;0.85;;;14.00;74.20;;;;;;2309514;56;20936;-65
2024/03/15 01:14:17;;;;;;;2.00;0.80;;;14.00;74.30;;;;;;2548820;54;21326;-66
2024/03/15 01:16:46;;;;;;;2.03;0.90;;;14.00;74.20;;;;;;2548441;54;20943;-65
2024/03/15 01:19:13;;;;;;;1.75;0.73;;;14.00;74.30;;;;;;2302119;55;21042;-65
2024/03/15 01:21:39;;;;;;;3.17;0.93;;;14.00;74.30;;;;;;2294579;54;20995;-66
2024/03/15 01:24:06;;;;;;;2.55;0.90;;;14.00;74.30;;;;;;2309671;56;20978;-65
2024/03/15 01:26:32;;;;;;;2.20;0.90;;;14.00;74.30;;;;;;2282930;55;21439;-65
2024/03/15 01:28:58;;;;;;;2.40;0.90;;;14.00;74.30;;;;;;2308700;56;21062;-65
2024/03/15 01:31:25;;;;;;;2.53;1.00;;;14.00;74.20;;;;;;2308928;56;21679;-66
2024/03/15 01:33:51;;;;;;;2.10;0.85;;;14.00;74.30;;;;;;2548460;54;20940;-65
2024/03/15 01:36:17;;;;;;;3.28;1.00;;;14.00;74.30;;;;;;2309632;56;20983;-65
2024/03/15 01:38:44;;;;;;;1.98;0.90;;;13.90;74.60;;;;;;2309850;56;20943;-65
2024/03/15 01:41:12;;;;;;;2.40;0.90;;;13.90;74.30;;;;;;2548031;54;21394;-65
2024/03/15 01:43:51;;;;;;;4.37;1.20;;;13.90;74.30;;;;;;2309205;56;20967;-66
2024/03/15 01:46:18;;;;;;;1.85;0.82;;;13.90;74.00;;;;;;2309884;55;20995;-66
2024/03/15 01:48:45;;;;;;;3.10;0.93;;;14.00;74.50;;;;;;2548462;54;20931;-64
2024/03/15 01:51:11;;;;;;;2.05;0.80;;;14.00;74.40;;;;;;2309325;56;21026;-65
2024/03/15 01:53:38;;;;;;;1.87;0.73;;;13.90;74.30;;;;;;2309485;56;20962;-65
2024/03/15 01:56:04;;;;;;;2.42;0.80;;;13.90;74.30;;;;;;2308641;56;20982;-65
2024/03/15 01:58:30;;;;;;;1.85;0.77;;;13.90;74.20;;;;;;2308446;56;20955;-65
2024/03/15 02:00:56;;;;;;;2.33;0.98;;;13.90;74.20;;;;;;2309431;56;20967;-64
2024/03/15 02:03:23;;;;;;;2.42;0.93;;;13.90;74.10;;;;;;2309254;56;21023;-65
2024/03/15 02:05:50;;;;;;;1.98;0.80;;;13.90;74.10;;;;;;2309454;56;21054;-65
2024/03/15 02:08:17;;;;;;;1.60;0.75;;;13.90;74.10;;;;;;2309445;54;21322;-65
2024/03/15 02:10:46;;;;;;;1.95;0.77;;;13.90;74.00;;;;;;2309915;56;21011;-65
2024/03/15 02:13:15;;;;;;;3.20;1.08;;;13.90;74.00;;;;;;2309530;56;21220;-64
2024/03/15 02:15:42;;;;;;;4.12;1.10;;;13.80;73.80;;;;;;2309640;56;21022;-65
2024/03/15 02:18:10;;;;;;;3.75;1.05;;;13.80;73.80;;;;;;2310205;56;20971;-65
2024/03/15 02:20:37;;;;;;;3.20;1.05;;;13.80;73.80;;;;;;2309870;56;21160;-65
2024/03/15 02:23:03;;;;;;;2.05;0.90;;;13.80;73.80;;;;;;2548695;54;21234;-65
2024/03/15 02:25:30;;;;;;;2.47;0.90;;;13.80;73.80;;;;;;2308748;56;21801;-65
2024/03/15 02:27:56;;;;;;;3.30;0.80;;;13.80;73.80;;;;;;2309757;56;20935;-65
2024/03/15 02:30:22;;;;;;;1.77;0.73;;;13.70;73.60;;;;;;2309738;56;20980;-65
2024/03/15 02:32:49;;;;;;;2.20;0.90;;;13.70;73.60;;;;;;2548841;54;21029;-66
2024/03/15 02:35:16;;;;;;;2.17;0.70;;;13.70;73.60;;;;;;2309810;54;20919;-65
2024/03/15 02:37:46;;;;;;;1.85;0.88;;;13.70;73.60;;;;;;2309516;56;21707;-66
2024/03/15 02:40:14;;;;;;;1.75;0.73;;;13.60;73.50;;;;;;2308520;56;20994;-65
2024/03/15 02:42:42;;;;;;;2.20;0.95;;;13.60;73.40;;;;;;2309300;56;20939;-65
2024/03/15 02:45:09;;;;;;;2.20;0.82;;;13.60;73.40;;;;;;2309394;56;21034;-65
2024/03/15 02:47:38;;;;;;;2.30;0.90;;;13.50;73.30;;;;;;2309478;56;21211;-65
2024/03/15 02:50:06;;;;;;;2.87;0.90;;;13.50;73.40;;;;;;2309397;56;20986;-66
2024/03/15 02:52:32;;;;;;;2.53;0.93;;;13.50;73.40;;;;;;2308897;56;21276;-66
2024/03/15 02:54:58;;;;;;;2.72;1.17;;;13.40;73.40;;;;;;2548373;54;20940;-65
2024/03/15 02:57:25;;;;;;;2.28;0.90;;;13.40;73.50;;;;;;2309144;56;20959;-65
2024/03/15 02:59:52;;;;;;;2.05;0.82;;;13.40;73.50;;;;;;2309813;56;21421;-65
2024/03/15 03:02:18;;;;;;;3.87;1.00;;;13.40;73.40;;;;;;2305591;54;20968;-64
2024/03/15 03:04:47;;;;;;;2.30;0.90;;;13.40;73.30;;;;;;2522978;54;20943;-65
2024/03/15 03:07:14;;;;;;;2.37;0.90;;;13.30;74.00;;;;;;2309035;56;21579;-66
2024/03/15 03:09:41;;;;;;;1.77;0.73;;;13.30;73.30;;;;;;2309380;56;20971;-65
2024/03/15 03:12:07;;;;;;;2.50;1.00;;;13.30;73.30;;;;;;2308991;56;21831;-64
2024/03/15 03:14:33;;;;;;;2.28;0.90;;;13.30;73.40;;;;;;2548246;54;20948;-65
2024/03/15 03:17:00;;;;;;;2.85;0.95;;;13.20;73.30;;;;;;2308902;56;21428;-65
2024/03/15 03:19:28;;;;;;;2.25;0.98;;;13.20;73.30;;;;;;2548423;54;20931;-64
2024/03/15 03:21:59;;;;;;;1.75;0.90;;;13.20;73.30;;;;;;2309607;56;20979;-64
2024/03/15 03:24:25;;;;;;;2.33;1.00;;;13.10;73.10;;;;;;2547363;54;21014;-65
2024/03/15 03:26:52;;;;;;;2.08;0.88;;;13.20;73.30;;;;;;2309720;56;20975;-65
2024/03/15 03:29:18;;;;;;;2.03;0.90;;;13.10;73.20;;;;;;2309184;55;20948;-65
2024/03/15 03:31:44;;;;;;;1.98;0.90;;;13.10;73.30;;;;;;2548548;54;20970;-65
2024/03/15 03:34:11;;;;;;;1.80;0.73;;;13.10;73.30;;;;;;2548401;54;21070;-64
2024/03/15 03:36:37;;;;;;;3.22;1.00;;;13.00;73.30;;;;;;2309698;56;21487;-66
2024/03/15 03:39:04;;;;;;;2.37;0.93;;;13.00;73.40;;;;;;2548260;54;21039;-66
2024/03/15 03:41:31;;;;;;;4.28;1.12;;;13.00;73.50;;;;;;2309032;56;20936;-66
2024/03/15 03:43:57;;;;;;;3.12;1.15;;;13.00;73.60;;;;;;2547038;54;21953;-65
2024/03/15 03:46:25;;;;;;;2.75;1.05;;;13.00;73.70;;;;;;2309856;56;20943;-65
2024/03/15 03:48:51;;;;;;;2.85;1.10;;;13.00;73.90;;;;;;2547109;54;20960;-65
2024/03/15 03:51:20;;;;;;;3.03;1.05;;;13.00;74.00;;;;;;2309208;56;20935;-65
2024/03/15 03:53:47;;;;;;;3.95;1.20;;;13.10;74.20;;;;;;2309654;56;21808;-66
2024/03/15 03:56:15;;;;;;;3.05;1.30;;;13.10;74.40;;;;;;2309202;56;20939;-65
2024/03/15 03:58:41;;;;;;;2.78;1.12;;;13.00;74.50;;;;;;2309616;56;20967;-65
2024/03/15 04:01:08;;;;;;;2.85;1.20;;;13.10;74.70;;;;;;2548027;54;21062;-65
2024/03/15 04:03:35;;;;;;;3.00;1.35;;;13.20;74.90;;;;;;2309040;54;20951;-66
2024/03/15 04:06:01;;;;;;;3.17;1.35;;;13.20;75.00;;;;;;2309016;56;21731;-66
2024/03/15 04:08:27;;;;;;;3.45;1.40;;;13.20;75.10;;;;;;2308672;56;20931;-66
2024/03/15 04:10:54;;;;;;;3.53;1.20;;;13.20;75.20;;;;;;2309157;56;21003;-65
2024/03/15 04:13:22;;;;;;;2.72;1.27;;;13.30;75.30;;;;;;2308792;56;20934;-65
2024/03/15 04:15:49;;;;;;;2.15;1.08;;;13.40;75.50;;;;;;2548130;54;21539;-65
2024/03/15 04:18:16;;;;;;;3.45;1.30;;;13.40;75.50;;;;;;2309159;56;21680;-65
2024/03/15 04:20:43;;;;;;;2.65;1.17;;;13.50;75.60;;;;;;2309150;56;20951;-66
2024/03/15 04:23:09;;;;;;;2.53;1.15;;;13.50;75.60;;;;;;2308525;56;20995;-65
2024/03/15 04:25:35;;;;;;;2.92;1.17;;;13.60;75.70;;;;;;2309094;56;20967;-65
2024/03/15 04:28:02;;;;;;;2.45;1.10;;;13.60;75.70;;;;;;2309309;56;20948;-65
2024/03/15 04:30:28;;;;;;;2.60;1.12;;;13.70;75.70;;;;;;2548462;54;20963;-66
2024/03/15 04:32:58;;;;;;;2.45;1.08;;;13.70;75.70;;;;;;2309461;56;20995;-65
2024/03/15 04:35:27;;;;;;;2.30;1.10;;;13.70;75.50;;;;;;2309518;56;20974;-66
2024/03/15 04:37:55;;;;;;;3.17;1.40;;;13.80;75.40;;;;;;2309389;56;20943;-65
2024/03/15 04:40:24;;;;;;;3.10;1.08;;;13.90;75.60;;;;;;2309155;56;20982;-66
2024/03/15 04:42:51;;;;;;;2.25;1.02;;;13.90;75.60;;;;;;2309729;56;20995;-66
2024/03/15 04:45:19;;;;;;;3.28;1.12;;;13.90;75.50;;;;;;2308298;56;20971;-65
2024/03/15 04:47:45;;;;;;;2.75;1.10;;;14.00;75.50;;;;;;2522296;54;21027;-66
2024/03/15 04:50:12;;;;;;;2.72;1.20;;;14.00;75.40;;;;;;2548132;54;22212;-66
2024/03/15 04:52:42;;;;;;;2.70;1.20;;;14.00;75.20;;;;;;2308722;56;20927;-66
2024/03/15 04:55:09;;;;;;;2.45;1.10;;;14.10;75.00;;;;;;2308363;56;21022;-65
2024/03/15 04:57:39;;;;;;;3.12;1.20;;;14.10;75.10;;;;;;2309181;56;21027;-66
2024/03/15 05:00:09;;;;;;;2.58;1.10;;;14.10;75.00;;;;;;2309124;56;20963;-65
2024/03/15 05:02:36;;;;;;;3.95;1.23;;;14.10;75.00;;;;;;2309332;56;21810;-66
2024/03/15 05:05:07;;;;;;;2.87;1.20;;;14.10;74.90;;;;;;2292881;55;20955;-65
2024/03/15 05:07:33;;;;;;;3.42;1.23;;;14.20;75.00;;;;;;2541659;54;21571;-66
2024/03/15 05:09:59;;;;;;;2.30;1.05;;;14.20;74.90;;;;;;2300074;55;20951;-64
2024/03/15 05:12:26;;;;;;;2.33;0.90;;;14.20;74.70;;;;;;2281029;54;20930;-66
2024/03/15 05:14:54;;;;;;;2.62;1.10;;;14.20;74.60;;;;;;2547435;54;20968;-66
2024/03/15 05:17:22;;;;;;;2.70;1.27;;;14.20;74.40;;;;;;2308865;56;21743;-65
2024/03/15 05:19:48;;;;;;;3.10;1.40;;;14.20;74.20;;;;;;2309309;56;21038;-64
2024/03/15 05:22:15;;;;;;;2.40;1.20;;;14.20;74.10;;;;;;2308658;56;20943;-65
2024/03/15 05:24:43;;;;;;;2.83;1.20;;;14.10;73.90;;;;;;2308698;56;20955;-66
2024/03/15 05:27:09;;;;;;;2.60;1.00;;;14.20;73.90;;;;;;2291449;54;20999;-65
2024/03/15 05:29:38;;;;;;;2.58;1.00;;;14.10;73.70;;;;;;2304396;55;20939;-66
2024/03/15 05:32:05;;;;;;;2.70;1.00;;;14.10;73.60;;;;;;2547687;54;20939;-65
2024/03/15 05:34:32;;;;;;;3.00;1.33;;;14.10;73.50;;;;;;2309615;54;21038;-65
2024/03/15 05:36:59;;;;;;;2.55;1.05;;;14.10;73.40;;;;;;2308691;54;21299;-66
2024/03/15 05:39:28;;;;;;;2.65;0.88;;;14.00;73.30;;;;;;2309085;56;20947;-66
2024/03/15 05:41:57;;;;;;;3.87;1.08;;;14.00;73.30;;;;;;2547982;54;21041;-65
2024/03/15 05:44:25;;;;;;;2.97;1.05;;;13.90;73.10;;;;;;2285370;54;20951;-65
2024/03/15 05:46:51;;;;;;;3.65;1.50;;;13.90;73.10;;;;;;2549321;54;21007;-65
2024/03/15 05:49:20;;;;;;;2.22;1.08;;;13.90;73.10;;;;;;2547844;54;20947;-65
2024/03/15 05:51:46;;;;;;;2.65;1.10;;;13.90;73.10;;;;;;2548845;54;21027;-65
2024/03/15 05:54:13;;;;;;;2.90;1.12;;;13.80;73.00;;;;;;2548246;54;20935;-64
2024/03/15 05:56:39;;;;;;;3.95;1.27;;;13.80;73.10;;;;;;2548726;54;21379;-64
2024/03/15 05:59:06;;;;;;;3.45;1.02;;;13.70;73.60;;;;;;2309486;56;20935;-64
2024/03/15 06:01:33;;;;;;;2.80;1.17;;;13.70;72.90;;;;;;2534401;54;20963;-65
2024/03/15 06:03:59;;;;;;;2.75;1.20;;;13.70;72.90;;;;;;2295685;54;20923;-65
2024/03/15 06:06:26;;;;;;;3.45;1.30;;;13.60;72.90;;;;;;2309432;56;21319;-65
2024/03/15 06:08:55;;;;;;;2.65;1.20;;;13.60;73.10;;;;;;2310820;54;21259;-65
2024/03/15 06:11:21;;;;;;;3.37;0.93;;;13.60;73.20;;;;;;2547421;54;20959;-65
2024/03/15 06:13:48;;;;;;;2.60;1.05;;;13.60;73.30;;;;;;2309607;55;21066;-64
2024/03/15 06:16:26;;;;;;;3.12;1.30;;;13.50;73.20;;;;;;2308226;56;21467;-66
2024/03/15 06:18:52;;;;;;;2.95;1.27;;;13.50;73.30;;;;;;2547981;54;21035;-66
2024/03/15 06:21:19;;;;;;;2.95;1.60;;;13.60;73.50;;;;;;2308738;56;21011;-65
2024/03/15 06:23:46;;;;;;;2.42;1.17;;;13.60;73.60;;;;;;2308535;56;20998;-65
2024/03/15 06:26:13;;;;;;;2.62;1.30;;;13.50;73.60;;;;;;2307663;56;20959;-65
2024/03/15 06:28:39;;;;;;;3.20;1.37;;;13.50;73.70;;;;;;2308638;55;20970;-65
2024/03/15 06:31:07;;;;;;;3.20;1.40;;;13.50;73.80;;;;;;2308509;56;21051;-65
2024/03/15 06:33:33;;;;;;;4.65;1.67;;;13.50;74.00;;;;;;2309620;56;21006;-65
2024/03/15 06:36:03;;;;;;;5.12;1.73;;;13.50;74.20;;;;;;2548322;54;21973;-65
2024/03/15 06:39:24;;;;;;;4.32;1.55;;;13.60;74.50;;;;;;2547718;54;21035;-65
2024/03/15 06:41:55;;;;;;;3.28;1.52;;;13.60;74.70;;;;;;2309409;56;21318;-66
2024/03/15 06:44:25;;;;;;;4.05;1.77;;;13.60;75.00;;;;;;2309005;56;20967;-66
2024/03/15 06:56:06;;;;;;;3.60;1.35;;;13.80;75.50;;;;;;2548102;54;21017;-65
2024/03/15 06:58:32;;;;;;;3.25;1.27;;;13.90;75.90;;;;;;2549031;54;21015;-65
2024/03/15 07:00:59;;;;;;;3.15;1.30;;;14.00;76.10;;;;;;2310027;54;21695;-65
2024/03/15 07:03:27;;;;;;;3.55;1.70;;;14.00;76.30;;;;;;2309101;56;21015;-64
2024/03/15 07:05:56;;;;;;;2.87;1.50;;;14.00;76.40;;;;;;2548336;54;21191;-65
2024/03/15 07:08:23;;;;;;;3.08;1.60;;;14.10;76.60;;;;;;2548107;54;20979;-65
2024/03/15 07:10:49;;;;;;;3.72;1.80;;;14.10;76.60;;;;;;2549003;54;20963;-66
2024/03/15 07:13:15;;;;;;;2.97;1.62;;;14.20;76.80;;;;;;2547949;54;20988;-66
2024/03/15 07:15:43;;;;;;;4.35;1.73;;;14.30;77.00;;;;;;2309217;54;20963;-66
2024/03/15 07:18:09;;;;;;;5.05;2.28;;;14.40;77.20;;;;;;2286719;55;21042;-66
2024/03/15 07:20:41;;;;;;;3.17;1.60;;;14.40;77.30;;;;;;2548718;54;21496;-66
2024/03/15 07:23:08;;;;;;;3.28;1.52;;;14.50;77.50;;;;;;2309244;56;21377;-66
2024/03/15 07:25:35;;;;;;;3.75;1.50;;;14.60;77.60;;;;;;2548499;54;21810;-67
2024/03/15 07:28:02;;;;;;;3.40;1.60;;;14.70;77.80;;;;;;2289829;55;20967;-65
2024/03/15 07:30:29;;;;;;;5.20;1.90;;;14.80;77.90;;;;;;2526687;54;21464;-65
2024/03/15 07:32:56;;;;;;;4.62;1.60;;;14.90;77.90;;;;;;2536310;54;21368;-65
2024/03/15 07:35:23;;;;;;;3.60;1.70;;;15.00;77.90;;;;;;2308700;55;21031;-65
2024/03/15 07:37:53;;;;;;;3.20;1.70;;;15.10;77.90;;;;;;2309143;56;20963;-65
2024/03/15 07:40:19;;;;;;;5.10;2.10;;;15.20;78.00;;;;;;2308938;56;21240;-66
2024/03/15 07:42:46;;;;;;;2.95;1.52;;;15.20;77.80;;;;;;2548760;54;21228;-66
2024/03/15 07:45:14;;;;;;;3.12;1.65;;;15.40;78.00;;;;;;2308799;56;20939;-66
2024/03/15 07:47:41;;;;;;;5.62;1.60;;;15.50;77.90;;;;;;2549046;54;21059;-66
2024/03/15 07:50:11;;;;;;;3.87;1.85;;;15.60;77.80;;;;;;2285869;55;20995;-66
2024/03/15 07:52:40;;;;;;;4.68;1.58;;;15.70;77.80;;;;;;2519625;54;21096;-65
2024/03/15 07:55:07;;;;;;;2.90;1.50;;;15.70;77.70;;;;;;2307794;55;21011;-66
2024/03/15 07:57:33;;;;;;;2.53;1.27;;;15.80;77.70;;;;;;2285585;54;20999;-65
2024/03/15 08:00:00;;;;;;;3.53;1.70;;;15.90;77.70;;;;;;2308958;56;21522;-65
2024/03/15 08:02:26;;;;;;;2.95;1.40;;;16.00;77.70;;;;;;2547824;54;20947;-65
2024/03/15 08:04:52;;;;;;;3.08;1.42;;;16.00;77.60;;;;;;2548098;54;20998;-65
2024/03/15 08:07:20;;;;;;;3.70;1.40;;;16.10;77.50;;;;;;2309176;56;20967;-65
2024/03/15 08:09:46;;;;;;;3.35;1.30;;;16.20;77.40;;;;;;2548468;54;20956;-66
2024/03/15 08:12:16;;;;;;;3.47;1.45;;;16.30;77.40;;;;;;2308717;56;21015;-66
2024/03/15 08:14:42;;;;;;;4.53;1.77;;;16.30;77.30;;;;;;2309412;56;20943;-66
2024/03/15 08:17:12;;;;;;;3.00;1.37;;;16.40;77.10;;;;;;2309696;56;21303;-65
2024/03/15 08:19:39;;;;;;;3.20;1.30;;;16.40;77.10;;;;;;2308504;56;21063;-66
2024/03/15 08:22:07;;;;;;;3.72;1.40;;;16.50;77.30;;;;;;2309739;56;20990;-67
2024/03/15 08:24:34;;;;;;;3.92;1.33;;;16.50;77.30;;;;;;2547923;54;21003;-66
2024/03/15 08:27:03;;;;;;;5.12;1.90;;;16.60;77.60;;;;;;2548811;54;20991;-66
2024/03/15 08:29:30;;;;;;;3.60;1.40;;;16.70;77.40;;;;;;2308967;56;21039;-65
2024/03/15 08:32:00;;;;;;;3.62;1.75;;;16.80;78.00;;;;;;2548121;54;20951;-66
2024/03/15 08:34:28;;;;;;;3.78;1.50;;;16.90;78.20;;;;;;2548313;54;20939;-65
2024/03/15 08:36:56;;;;;;;5.82;1.75;;;16.90;78.20;;;;;;2309930;56;20959;-66
2024/03/15 08:39:24;;;;;;;3.80;1.55;;;17.00;78.30;;;;;;2308603;56;21023;-67
2024/03/15 08:41:51;;;;;;;3.67;1.52;;;17.20;78.40;;;;;;2309649;56;20968;-66
2024/03/15 08:44:20;;;;;;;3.75;1.70;;;17.30;78.40;;;;;;2309029;56;20971;-67
2024/03/15 08:46:47;;;;;;;3.20;1.60;;;17.40;78.30;;;;;;2309453;56;20964;-66
2024/03/15 08:49:15;;;;;;;5.50;1.62;;;17.50;78.00;;;;;;2547420;54;20950;-65
2024/03/15 08:51:44;;;;;;;2.75;1.30;;;17.60;77.80;;;;;;2549248;54;21429;-66
2024/03/15 08:54:11;;;;;;;3.83;1.62;;;17.60;77.30;;;;;;2309675;54;21014;-66
2024/03/15 08:56:39;;;;;;;5.43;1.55;;;17.70;77.10;;;;;;2309811;56;21823;-67
2024/03/15 08:59:06;;;;;;;5.20;1.40;;;17.70;76.80;;;;;;2287406;54;20915;-66
2024/03/15 09:01:34;;;;;;;4.20;1.70;;;17.80;76.50;;;;;;2309090;56;21010;-66
2024/03/15 09:04:04;;;;;;;3.47;1.75;;;17.80;76.10;;;;;;2309704;56;20975;-66
2024/03/15 09:06:34;;;;;;;4.95;1.80;;;17.90;76.10;;;;;;2546679;54;20939;-65
2024/03/15 09:09:07;;;;;;;3.92;1.70;;;17.90;75.80;;;;;;2309214;56;20955;-66
2024/03/15 09:11:34;;;;;;;4.93;2.47;;;17.90;75.30;;;;;;2309075;56;20986;-65
2024/03/15 09:14:00;;;;;;;4.28;2.10;;;17.90;75.20;;;;;;2548496;54;21027;-65
2024/03/15 09:16:27;;;;;;;4.70;2.03;;;17.90;74.90;;;;;;2548127;54;21051;-66
2024/03/15 09:18:55;;;;;;;5.65;2.37;;;17.90;74.90;;;;;;2548957;54;20963;-66
2024/03/15 09:21:21;;;;;;;5.25;2.17;;;17.90;74.80;;;;;;2548403;54;21003;-67
2024/03/15 09:23:48;;;;;;;4.37;2.60;;;17.90;74.70;;;;;;2309854;54;20975;-66
2024/03/15 09:26:16;;;;;;;5.68;2.72;;;17.90;74.60;;;;;;2547896;54;21196;-66
2024/03/15 09:28:47;;;;;;;5.20;2.20;;;17.90;74.50;;;;;;2295985;55;21287;-65
2024/03/15 09:31:14;;;;;;;3.30;1.90;;;17.90;74.70;;;;;;2538053;54;21067;-66
2024/03/15 09:33:44;;;;;;;3.78;1.95;;;17.90;74.90;;;;;;2309431;56;20959;-66
2024/03/15 09:36:13;;;;;;;4.47;1.83;;;17.90;74.80;;;;;;2309453;56;21298;-65
2024/03/15 09:38:40;;;;;;;3.92;1.73;;;18.00;74.90;;;;;;2297495;55;20966;-66
2024/03/15 09:41:06;;;;;;;3.37;1.67;;;17.90;74.70;;;;;;2535363;54;20951;-66
2024/03/15 09:43:33;;;;;;;3.60;1.50;;;17.90;74.50;;;;;;2547974;54;21809;-66
2024/03/15 09:46:01;;;;;;;5.37;1.90;;;17.90;74.50;;;;;;2548337;54;20928;-66
2024/03/15 09:48:27;;;;;;;4.10;1.75;;;18.00;74.70;;;;;;2309379;56;20939;-65
2024/03/15 09:50:56;;;;;;;5.57;1.83;;;17.90;74.60;;;;;;2287077;55;21042;-67
2024/03/15 09:53:22;;;;;;;5.95;1.80;;;17.90;74.50;;;;;;2309076;56;20990;-65
2024/03/15 09:55:52;;;;;;;3.47;1.65;;;18.00;74.60;;;;;;2309664;56;21040;-66
2024/03/15 09:58:20;;;;;;;3.25;1.60;;;17.90;74.50;;;;;;2309467;56;21011;-66
2024/03/15 10:00:47;;;;;;;5.30;2.10;;;17.90;74.50;;;;;;2516528;54;20971;-65
2024/03/15 10:03:13;;;;;;;4.55;1.90;;;18.00;74.80;;;;;;2308419;56;20947;-66
2024/03/15 10:05:43;;;;;;;5.93;2.05;;;18.00;74.80;;;;;;2548267;54;20971;-67
2024/03/15 10:08:10;;;;;;;4.43;2.05;;;18.00;74.60;;;;;;2308283;56;21287;-65
2024/03/15 10:10:39;;;;;;;9.00;1.87;;;18.00;75.00;;;;;;2307844;56;20967;-66
2024/03/15 10:13:06;;;;;;;4.00;2.00;;;18.00;74.80;;;;;;2309074;56;20951;-66
2024/03/15 10:15:32;;;;;;;4.25;2.00;;;18.10;75.00;;;;;;2309709;55;21098;-66
2024/03/15 10:17:58;;;;;;;4.62;1.67;;;18.10;74.80;;;;;;2309723;56;20959;-67
2024/03/15 10:20:25;;;;;;;4.43;1.50;;;18.10;75.00;;;;;;2308912;56;20953;-65
2024/03/15 10:22:53;;;;;;;3.37;1.67;;;18.20;75.20;;;;;;2310103;55;21097;-66
2024/03/15 10:25:21;;;;;;;3.80;1.67;;;18.20;75.10;;;;;;2309220;54;20970;-66
2024/03/15 10:27:53;;;;;;;4.87;1.83;;;18.20;75.00;;;;;;2308547;56;20986;-65
2024/03/15 10:30:22;;;;;;;3.77;1.97;;;18.20;75.00;;;;;;2309537;56;20991;-66
2024/03/15 10:32:53;;;;;;;3.70;1.83;;;18.20;75.00;;;;;;2309178;56;20967;-66
2024/03/15 10:35:20;;;;;;;4.37;1.90;;;18.30;75.30;;;;;;2548786;54;20958;-65
2024/03/15 10:37:50;;;;;;;4.03;1.52;;;18.30;75.40;;;;;;2548386;54;20959;-66
2024/03/15 10:40:26;;;;;;;3.62;2.10;;;18.20;75.40;;;;;;2308801;56;20951;-66
2024/03/15 10:43:00;;;;;;;4.43;2.28;;;18.40;75.30;;;;;;2309946;56;21296;-66
2024/03/15 10:45:27;;;;;;;5.37;2.03;;;18.40;75.50;;;;;;2309178;56;21008;-66
2024/03/15 10:47:54;;;;;;;4.70;1.83;;;18.50;75.80;;;;;;2309408;56;21398;-66
2024/03/15 10:50:24;;;;;;;3.37;1.60;;;18.60;76.00;;;;;;2309616;56;21003;-67
2024/03/15 10:52:52;;;;;;;4.22;1.80;;;18.60;76.00;;;;;;2309723;56;20931;-66
2024/03/15 10:55:24;;;;;;;4.40;1.85;;;18.70;76.40;;;;;;2309399;56;20955;-65
2024/03/15 10:57:53;;;;;;;3.40;1.67;;;18.80;76.60;;;;;;2309896;56;20954;-65
2024/03/15 11:00:24;;;;;;;4.95;1.80;;;18.90;77.60;;;;;;2548565;54;20919;-66
2024/03/15 11:02:55;;;;;;;5.22;2.87;;;19.00;77.30;;;;;;2309361;56;21827;-66
2024/03/15 11:05:26;;;;;;;5.43;2.03;;;19.10;77.70;;;;;;2548724;54;20966;-66
2024/03/15 11:08:05;;;;;;;5.68;1.80;;;19.20;77.60;;;;;;2309375;56;21436;-66
2024/03/15 11:10:31;;;;;;;4.62;1.80;;;19.30;77.00;;;;;;2548107;54;20955;-66
2024/03/15 11:12:59;;;;;;;3.25;1.30;;;19.40;78.20;;;;;;2548652;54;21709;-66
2024/03/15 11:15:33;;;;;;;4.18;1.33;;;19.60;78.40;;;;;;2309309;56;20967;-66
2024/03/15 11:18:09;;;;;;;5.72;1.75;;;19.70;78.10;;;;;;2308913;55;21362;-66
2024/03/15 11:22:27;;;;;;;3.65;1.55;;;19.80;76.90;;;;;;2294608;54;20995;-66
2024/03/15 11:24:53;;;;;;;2.83;1.30;;;20.00;75.10;;;;;;2309105;56;20963;-65
2024/03/15 11:27:20;;;;;;;5.20;1.45;;;20.10;78.30;;;;;;2309125;56;20943;-65
2024/03/15 11:29:48;;;;;;;3.00;1.42;;;20.20;78.20;;;;;;2547903;54;21707;-66
2024/03/15 11:32:15;;;;;;;4.05;1.40;;;20.30;77.90;;;;;;2547532;54;20967;-66
2024/03/15 11:34:42;;;;;;;3.60;1.30;;;20.40;78.10;;;;;;2309133;56;21278;-67
2024/03/15 11:37:11;;;;;;;2.47;1.15;;;20.50;78.40;;;;;;2309428;56;20979;-66
2024/03/15 11:39:37;;;;;;;4.62;1.60;;;20.60;77.90;;;;;;2308791;56;21003;-67
2024/03/15 11:42:05;;;;;;;2.80;1.30;;;20.70;77.60;;;;;;2309750;56;21362;-66
2024/03/15 11:44:31;;;;;;;3.08;1.20;;;20.70;77.00;;;;;;2309127;55;21663;-66
2024/03/15 11:46:58;;;;;;;3.55;1.23;;;20.80;76.00;;;;;;2309704;56;21010;-66
2024/03/15 11:49:26;;;;;;;2.78;1.15;;;20.90;76.00;;;;;;2309747;56;20956;-65
2024/03/15 11:51:58;;;;;;;2.42;1.10;;;20.90;75.60;;;;;;2548003;54;21552;-67
2024/03/15 11:54:27;;;;;;;2.70;1.00;;;20.90;75.20;;;;;;2309573;56;20952;-66
2024/03/15 11:56:57;;;;;;;2.58;0.82;;;21.00;75.00;;;;;;2309200;56;20971;-67
2024/03/15 11:59:27;;;;;;;2.90;1.00;;;20.90;75.20;;;;;;2308953;56;20991;-65
2024/03/15 12:01:54;;;;;;;2.17;0.82;;;21.00;74.60;;;;;;2548523;54;20935;-67
2024/03/15 12:04:24;;;;;;;2.53;1.00;;;21.00;75.20;;;;;;2309237;54;20943;-65
2024/03/15 12:06:50;;;;;;;1.83;0.73;;;21.00;75.10;;;;;;2286956;55;20943;-65
2024/03/15 12:09:18;;;;;;;2.22;0.80;;;21.00;75.00;;;;;;2309051;56;20962;-66
2024/03/15 12:11:44;;;;;;;1.95;0.75;;;21.00;74.60;;;;;;2308901;56;21007;-67
2024/03/15 12:14:13;;;;;;;3.80;0.90;;;21.00;74.40;;;;;;2309342;56;20995;-66
2024/03/15 12:16:45;;;;;;;4.22;0.98;;;21.00;73.90;;;;;;2309027;56;21536;-66
2024/03/15 12:19:17;;;;;;;;;;;21.00;73.00;;;;;;2552464;54;21299;-66
2024/03/15 12:21:45;;;;;;;3.85;0.90;;;21.00;71.60;;;;;;2548890;54;20330;-66
2024/03/15 12:24:12;;;;;;;2.30;0.98;;;21.00;74.30;;;;;;2310020;56;21003;-66
2024/03/15 12:26:40;;;;;;;3.87;1.10;;;20.90;74.80;;;;;;2308972;56;21186;-65
2024/03/15 12:29:08;;;;;;;2.47;0.90;;;20.90;74.90;;;;;;2309513;54;21047;-66
2024/03/15 12:31:40;;;;;;;2.40;0.85;;;21.00;75.00;;;;;;2308479;56;20925;-67
2024/03/15 12:34:08;;;;;;;2.58;1.00;;;21.00;75.30;;;;;;2548649;54;20995;-66
2024/03/15 12:36:34;;;;;;;2.55;0.90;;;21.00;75.00;;;;;;2308765;56;21035;-66
2024/03/15 12:39:03;;;;;;;2.87;1.00;;;21.00;74.80;;;;;;2308885;56;20939;-66
2024/03/15 12:41:29;;;;;;;3.15;0.90;;;21.10;74.90;;;;;;2309241;56;21066;-67
2024/03/15 12:43:55;;;;;;;3.47;0.90;;;21.10;74.90;;;;;;2548378;54;21683;-66
2024/03/15 12:46:21;;;;;;;2.65;0.77;;;21.10;74.70;;;;;;2548191;54;21283;-66
2024/03/15 12:48:49;;;;;;;2.70;0.80;;;21.10;74.30;;;;;;2298606;55;20955;-67
2024/03/15 12:51:17;;;;;;;3.50;0.80;;;21.10;73.90;;;;;;2533618;54;20963;-67
2024/03/15 12:53:43;;;;;;;1.70;0.70;;;21.10;74.10;;;;;;2518519;54;20983;-66
2024/03/15 12:56:09;;;;;;;3.15;0.88;;;21.10;74.00;;;;;;2539890;54;20962;-65
2024/03/15 12:58:37;;;;;;;2.33;1.02;;;21.10;73.60;;;;;;2308785;56;20982;-67
2024/03/15 13:01:05;;;;;;;2.60;0.80;;;21.10;73.20;;;;;;2309674;54;21544;-66